Time;durP1;ratioP1;P1;durP2;ratioP2;P2;SDS_P1;SDS_P2;PMS_P1;PMS_P2;Temp;Humidity;BMP_temperature;BMP_pressure;BME280_temperature;BME280_humidity;BME280_pressure;Samples;Min_cycle;Max_cycle;Signal;HPM_P1;HPM_P2
2022/06/08 00:00:26;;;;;;;5.35;2.38;;;;;;;;;;5089118;28;20032;-76
2022/06/08 00:03:01;;;;;;;4.75;2.35;;;;;;;;;;5085317;28;20568;-75
2022/06/08 00:05:27;;;;;;;4.05;2.25;;;;;;;;;;5088342;28;20028;-76
2022/06/08 00:07:53;;;;;;;4.53;2.40;;;;;;;;;;5083757;28;20382;-76
2022/06/08 00:10:18;;;;;;;8.48;2.53;;;;;;;;;;5080602;28;20036;-76
2022/06/08 00:12:44;;;;;;;8.55;2.70;;;;;;;;;;5086137;28;20036;-75
2022/06/08 00:15:11;;;;;;;5.32;2.90;;;;;;;;;;5082216;28;20032;-76
2022/06/08 00:17:37;;;;;;;4.53;2.90;;;;;;;;;;5084913;28;20039;-76
2022/06/08 00:20:06;;;;;;;8.18;2.85;;;;;;;;;;5084125;28;20028;-75
2022/06/08 00:22:32;;;;;;;10.30;3.47;;;;;;;;;;5085686;28;20111;-76
2022/06/08 00:24:58;;;;;;;7.00;2.85;;;;;;;;;;5090348;28;20114;-76
2022/06/08 00:27:23;;;;;;;8.02;2.47;;;;;;;;;;5083759;28;20040;-76
2022/06/08 00:29:49;;;;;;;6.38;3.05;;;;;;;;;;5087079;28;20090;-76
2022/06/08 00:32:14;;;;;;;6.55;3.00;;;;;;;;;;5087080;28;20017;-75
2022/06/08 00:34:39;;;;;;;5.55;2.80;;;;;;;;;;5086904;28;20127;-76
2022/06/08 00:37:05;;;;;;;6.43;3.03;;;;;;;;;;5081893;28;20044;-75
2022/06/08 00:39:30;;;;;;;4.28;2.58;;;;;;;;;;5085368;28;20036;-75
2022/06/08 00:42:00;;;;;;;4.60;2.88;;;;;;;;;;5081431;28;20032;-75
2022/06/08 00:44:31;;;;;;;8.07;2.78;;;;;;;;;;5087116;28;20028;-76
2022/06/08 00:46:59;;;;;;;5.07;2.60;;;;;;;;;;5078262;28;20092;-76
2022/06/08 00:49:27;;;;;;;7.43;3.30;;;;;;;;;;5098041;28;20036;-75
2022/06/08 00:51:52;;;;;;;5.10;3.33;;;;;;;;;;5080456;28;20445;-75
2022/06/08 00:54:30;;;;;;;10.70;3.60;;;;;;;;;;5082557;28;20603;-76
2022/06/08 00:57:08;;;;;;;8.75;3.88;;;;;;;;;;5088124;28;20043;-76
2022/06/08 00:59:36;;;;;;;8.70;4.45;;;;;;;;;;5086346;28;20024;-76
2022/06/08 01:02:01;;;;;;;9.23;4.57;;;;;;;;;;5088249;28;20475;-76
2022/06/08 01:04:29;;;;;;;9.50;4.35;;;;;;;;;;5085303;28;20042;-76
2022/06/08 01:06:57;;;;;;;8.63;4.10;;;;;;;;;;5084592;28;20035;-75
2022/06/08 01:09:35;;;;;;;6.60;3.78;;;;;;;;;;5076113;28;20514;-75
2022/06/08 01:12:08;;;;;;;8.18;3.80;;;;;;;;;;5079066;28;20044;-75
2022/06/08 01:14:34;;;;;;;9.10;4.20;;;;;;;;;;5081217;28;20490;-76
2022/06/08 01:17:04;;;;;;;7.53;4.50;;;;;;;;;;5085751;28;20012;-76
2022/06/08 01:19:34;;;;;;;8.30;4.32;;;;;;;;;;5084986;28;20036;-76
2022/06/08 01:22:01;;;;;;;6.35;3.83;;;;;;;;;;5085546;28;20513;-75
2022/06/08 01:24:28;;;;;;;5.80;4.13;;;;;;;;;;5078774;28;20144;-76
2022/06/08 01:27:05;;;;;;;8.15;4.57;;;;;;;;;;5087112;28;20036;-75
2022/06/08 01:30:08;;;;;;;9.52;4.78;;;;;;;;;;5079686;28;20024;-76
2022/06/08 01:32:57;;;;;;;14.33;6.53;;;;;;;;;;5085041;28;20039;-75
2022/06/08 01:35:31;;;;;;;13.95;6.35;;;;;;;;;;5079244;28;20031;-75
2022/06/08 01:38:27;;;;;;;12.65;6.55;;;;;;;;;;5087158;28;20020;-76
2022/06/08 01:41:24;;;;;;;12.65;6.97;;;;;;;;;;5085974;28;20039;-76
2022/06/08 01:43:52;;;;;;;14.82;7.70;;;;;;;;;;5087656;28;20115;-76
2022/06/08 01:46:24;;;;;;;17.27;8.18;;;;;;;;;;5103620;28;20649;-76
2022/06/08 01:48:59;;;;;;;15.50;7.60;;;;;;;;;;5091850;28;20055;-75
2022/06/08 01:51:27;;;;;;;16.05;7.20;;;;;;;;;;5084813;28;20487;-76
2022/06/08 01:54:16;;;;;;;14.18;7.07;;;;;;;;;;5087325;28;20520;-76
2022/06/08 01:57:30;;;;;;;12.57;5.95;;;;;;;;;;5078090;28;20028;-76
2022/06/08 02:00:13;;;;;;;12.15;5.97;;;;;;;;;;5038165;28;20105;-76
2022/06/08 02:03:00;;;;;;;11.70;5.25;;;;;;;;;;5086770;28;20029;-75
2022/06/08 02:05:58;;;;;;;12.32;5.38;;;;;;;;;;5086241;28;20461;-76
2022/06/08 02:08:30;;;;;;;12.00;5.38;;;;;;;;;;5074450;28;20036;-75
2022/06/08 02:11:07;;;;;;;9.82;5.05;;;;;;;;;;5088086;28;20020;-76
2022/06/08 02:13:45;;;;;;;13.15;5.60;;;;;;;;;;5089433;28;20024;-76
2022/06/08 02:16:33;;;;;;;9.73;4.50;;;;;;;;;;5081509;28;20661;-75
2022/06/08 02:19:05;;;;;;;9.75;4.28;;;;;;;;;;5084803;28;20032;-76
2022/06/08 02:21:37;;;;;;;7.53;3.92;;;;;;;;;;5085511;28;20044;-76
2022/06/08 02:24:12;;;;;;;7.18;3.72;;;;;;;;;;5086054;28;20513;-76
2022/06/08 02:26:45;;;;;;;10.38;3.70;;;;;;;;;;5086797;28;20062;-76
2022/06/08 02:29:15;;;;;;;7.80;3.33;;;;;;;;;;5090327;28;20027;-76
2022/06/08 02:31:46;;;;;;;7.63;3.20;;;;;;;;;;5084281;28;20047;-76
2022/06/08 02:34:29;;;;;;;4.25;2.70;;;;;;;;;;5089211;28;20618;-76
2022/06/08 02:37:20;;;;;;;5.05;2.90;;;;;;;;;;5090243;28;20039;-76
2022/06/08 02:39:51;;;;;;;3.95;2.47;;;;;;;;;;5087814;28;21120;-73
2022/06/08 02:42:23;;;;;;;5.00;3.08;;;;;;;;;;5085940;28;20089;-76
2022/06/08 02:44:54;;;;;;;6.45;2.95;;;;;;;;;;5090687;28;20048;-75
2022/06/08 02:47:29;;;;;;;3.78;2.63;;;;;;;;;;5088954;28;20056;-76
2022/06/08 02:49:54;;;;;;;5.03;2.80;;;;;;;;;;5088691;28;20031;-77
2022/06/08 02:52:23;;;;;;;4.18;2.88;;;;;;;;;;5087947;28;20036;-76
2022/06/08 02:54:50;;;;;;;5.28;2.55;;;;;;;;;;5075596;28;20072;-76
2022/06/08 02:57:42;;;;;;;4.40;2.70;;;;;;;;;;5071917;28;20047;-76
2022/06/08 03:00:13;;;;;;;3.97;2.78;;;;;;;;;;5084295;28;20032;-76
2022/06/08 03:02:42;;;;;;;6.10;3.15;;;;;;;;;;5080042;28;20032;-76
2022/06/08 03:05:18;;;;;;;5.88;2.47;;;;;;;;;;5084953;28;20024;-76
2022/06/08 03:07:57;;;;;;;4.00;2.63;;;;;;;;;;5090444;28;20120;-76
2022/06/08 03:10:24;;;;;;;5.47;2.58;;;;;;;;;;5074413;28;20463;-76
2022/06/08 03:13:08;;;;;;;5.60;2.45;;;;;;;;;;5083962;28;20178;-76
2022/06/08 03:15:34;;;;;;;5.93;2.50;;;;;;;;;;5081031;28;20047;-76
2022/06/08 03:17:59;;;;;;;6.50;2.50;;;;;;;;;;5086487;28;20036;-76
2022/06/08 03:20:26;;;;;;;5.97;2.67;;;;;;;;;;5078436;28;20052;-76
2022/06/08 03:22:53;;;;;;;4.75;2.38;;;;;;;;;;5086445;28;20019;-76
2022/06/08 03:25:19;;;;;;;4.85;2.13;;;;;;;;;;5082595;28;20051;-76
2022/06/08 03:27:46;;;;;;;5.88;2.38;;;;;;;;;;5083290;28;20036;-76
2022/06/08 03:30:13;;;;;;;3.72;2.55;;;;;;;;;;5087905;28;20085;-76
2022/06/08 03:32:38;;;;;;;8.52;2.60;;;;;;;;;;5080461;28;20058;-76
2022/06/08 03:35:04;;;;;;;4.25;2.47;;;;;;;;;;5087971;28;20024;-76
2022/06/08 03:37:30;;;;;;;6.63;2.53;;;;;;;;;;5087799;28;20032;-75
2022/06/08 03:39:55;;;;;;;3.85;2.47;;;;;;;;;;5087754;28;20039;-76
2022/06/08 03:42:20;;;;;;;3.22;2.30;;;;;;;;;;5084796;28;20032;-76
2022/06/08 03:44:46;;;;;;;3.55;2.28;;;;;;;;;;5076895;28;20520;-76
2022/06/08 03:47:16;;;;;;;4.32;2.42;;;;;;;;;;5088452;28;20020;-76
2022/06/08 03:49:42;;;;;;;6.22;2.33;;;;;;;;;;5081735;28;20048;-76
2022/06/08 03:52:17;;;;;;;4.10;2.38;;;;;;;;;;5080236;28;20051;-77
2022/06/08 03:54:48;;;;;;;9.50;2.45;;;;;;;;;;5077241;28;20078;-76
2022/06/08 03:57:15;;;;;;;3.38;2.33;;;;;;;;;;5081418;28;20032;-76
2022/06/08 03:59:42;;;;;;;5.10;2.47;;;;;;;;;;5085076;28;20055;-76
2022/06/08 04:02:09;;;;;;;8.93;2.33;;;;;;;;;;5089216;28;20497;-76
2022/06/08 04:04:36;;;;;;;5.03;2.10;;;;;;;;;;5088644;28;20071;-76
2022/06/08 04:07:01;;;;;;;3.88;2.70;;;;;;;;;;5088520;28;20036;-75
2022/06/08 04:09:27;;;;;;;4.43;2.30;;;;;;;;;;5089236;28;20032;-76
2022/06/08 04:11:52;;;;;;;4.38;2.20;;;;;;;;;;5080779;28;20105;-77
2022/06/08 04:14:18;;;;;;;5.05;2.42;;;;;;;;;;5084175;28;20024;-76
2022/06/08 04:16:43;;;;;;;4.72;2.20;;;;;;;;;;5081097;28;20016;-76
2022/06/08 04:19:08;;;;;;;3.92;1.92;;;;;;;;;;5087940;28;20047;-76
2022/06/08 04:21:34;;;;;;;6.38;2.25;;;;;;;;;;5084262;28;20036;-76
2022/06/08 04:24:00;;;;;;;2.95;1.90;;;;;;;;;;5081003;28;20036;-76
2022/06/08 04:26:26;;;;;;;4.65;2.00;;;;;;;;;;5082129;28;20048;-76
2022/06/08 04:28:52;;;;;;;6.57;2.50;;;;;;;;;;5073125;28;20036;-76
2022/06/08 04:31:18;;;;;;;5.03;2.28;;;;;;;;;;5082962;28;20060;-76
2022/06/08 04:33:44;;;;;;;7.82;2.40;;;;;;;;;;5087178;28;20043;-76
2022/06/08 04:36:09;;;;;;;6.40;2.10;;;;;;;;;;5078556;28;20032;-76
2022/06/08 04:38:35;;;;;;;5.35;2.30;;;;;;;;;;5087838;28;20028;-76
2022/06/08 04:41:02;;;;;;;5.07;2.17;;;;;;;;;;5094927;28;20116;-76
2022/06/08 04:43:28;;;;;;;5.53;2.00;;;;;;;;;;5079689;28;20067;-76
2022/06/08 04:45:53;;;;;;;6.47;2.25;;;;;;;;;;5086963;28;20074;-76
2022/06/08 04:48:19;;;;;;;6.10;2.35;;;;;;;;;;5093044;28;20074;-76
2022/06/08 04:50:45;;;;;;;5.32;2.00;;;;;;;;;;5092232;28;20748;-75
2022/06/08 04:53:10;;;;;;;5.18;2.10;;;;;;;;;;5081757;28;20028;-76
2022/06/08 04:55:36;;;;;;;6.82;2.30;;;;;;;;;;5069356;28;20061;-76
2022/06/08 04:58:01;;;;;;;4.43;2.05;;;;;;;;;;5096987;28;20039;-76
2022/06/08 05:00:27;;;;;;;10.50;2.25;;;;;;;;;;5079091;28;20040;-76
2022/06/08 05:02:54;;;;;;;3.70;1.98;;;;;;;;;;5084307;28;20040;-76
2022/06/08 05:05:25;;;;;;;6.00;2.50;;;;;;;;;;5084999;28;20032;-76
2022/06/08 05:07:51;;;;;;;6.57;2.05;;;;;;;;;;5088017;28;20032;-76
2022/06/08 05:10:18;;;;;;;7.18;2.30;;;;;;;;;;5085398;28;20036;-76
2022/06/08 05:12:44;;;;;;;4.43;2.10;;;;;;;;;;5086261;28;20122;-76
2022/06/08 05:15:13;;;;;;;6.18;2.30;;;;;;;;;;5079428;28;20043;-77
2022/06/08 05:17:38;;;;;;;6.47;2.33;;;;;;;;;;5085249;28;20035;-76
2022/06/08 05:20:05;;;;;;;7.50;2.45;;;;;;;;;;5081567;28;20567;-75
2022/06/08 05:22:31;;;;;;;9.52;2.63;;;;;;;;;;5084652;28;20031;-74
2022/06/08 05:24:57;;;;;;;3.67;2.10;;;;;;;;;;5080532;28;20032;-76
2022/06/08 05:27:22;;;;;;;4.53;2.30;;;;;;;;;;5085855;28;20039;-76
2022/06/08 05:29:48;;;;;;;8.18;2.60;;;;;;;;;;5087224;28;20036;-75
2022/06/08 05:32:13;;;;;;;7.60;2.70;;;;;;;;;;5086460;28;20027;-74
2022/06/08 05:34:38;;;;;;;9.55;2.85;;;;;;;;;;5077604;28;20028;-74
2022/06/08 05:37:04;;;;;;;5.60;2.50;;;;;;;;;;5086778;28;20040;-69
2022/06/08 05:39:29;;;;;;;6.53;2.85;;;;;;;;;;5074018;28;20036;-69
2022/06/08 05:41:55;;;;;;;4.45;2.40;;;;;;;;;;5079111;28;20040;-70
2022/06/08 05:44:20;;;;;;;7.55;2.40;;;;;;;;;;5087096;28;20050;-69
2022/06/08 05:46:50;;;;;;;4.18;2.33;;;;;;;;;;5087229;28;20028;-70
2022/06/08 05:49:16;;;;;;;4.95;2.08;;;;;;;;;;5079980;28;20032;-68
2022/06/08 05:51:42;;;;;;;6.30;2.97;;;;;;;;;;5078375;28;20085;-69
2022/06/08 05:54:08;;;;;;;7.68;2.45;;;;;;;;;;5078497;28;20091;-69
2022/06/08 05:56:34;;;;;;;7.60;2.60;;;;;;;;;;5083376;28;20124;-75
2022/06/08 05:58:59;;;;;;;4.97;2.53;;;;;;;;;;5083286;28;20016;-69
2022/06/08 06:01:25;;;;;;;5.88;2.22;;;;;;;;;;5082704;28;21774;-69
2022/06/08 06:03:51;;;;;;;7.53;2.80;;;;;;;;;;5078648;28;20153;-70
2022/06/08 06:06:17;;;;;;;6.10;2.78;;;;;;;;;;5085673;28;20632;-71
2022/06/08 06:08:45;;;;;;;8.98;2.78;;;;;;;;;;5082048;28;20127;-70
2022/06/08 06:11:13;;;;;;;7.90;2.88;;;;;;;;;;5085584;28;20028;-71
2022/06/08 06:13:39;;;;;;;4.90;2.40;;;;;;;;;;5082438;28;20070;-71
2022/06/08 06:16:04;;;;;;;6.32;2.97;;;;;;;;;;5073001;28;20086;-70
2022/06/08 06:18:30;;;;;;;11.18;2.55;;;;;;;;;;5074545;28;20032;-70
2022/06/08 06:20:55;;;;;;;8.88;2.50;;;;;;;;;;5078764;28;20070;-70
2022/06/08 06:23:21;;;;;;;7.03;3.30;;;;;;;;;;5078889;28;20114;-70
2022/06/08 06:25:46;;;;;;;8.85;3.08;;;;;;;;;;5081826;28;20028;-70
2022/06/08 06:28:11;;;;;;;6.38;2.40;;;;;;;;;;5083057;28;20044;-71
2022/06/08 06:30:36;;;;;;;11.65;2.90;;;;;;;;;;5078506;28;20032;-70
2022/06/08 06:33:02;;;;;;;7.15;1.95;;;;;;;;;;5073756;28;20514;-70
2022/06/08 06:35:30;;;;;;;9.73;2.45;;;;;;;;;;5079394;28;20451;-71
2022/06/08 06:37:55;;;;;;;8.27;3.05;;;;;;;;;;5080847;28;20457;-70
2022/06/08 06:40:21;;;;;;;6.85;2.60;;;;;;;;;;5082597;28;20816;-69
2022/06/08 06:42:47;;;;;;;6.07;2.47;;;;;;;;;;5079275;28;20089;-71
2022/06/08 06:45:14;;;;;;;8.82;2.40;;;;;;;;;;5068147;28;20037;-71
2022/06/08 06:47:40;;;;;;;8.18;2.53;;;;;;;;;;5079077;28;20036;-71
2022/06/08 06:50:07;;;;;;;12.30;4.45;;;;;;;;;;5085037;28;20043;-71
2022/06/08 06:52:33;;;;;;;6.85;2.70;;;;;;;;;;5067898;28;20039;-71
2022/06/08 06:54:58;;;;;;;12.07;3.08;;;;;;;;;;5071684;28;20132;-71
2022/06/08 06:57:24;;;;;;;7.53;2.72;;;;;;;;;;5078341;28;20536;-70
2022/06/08 06:59:50;;;;;;;10.13;3.17;;;;;;;;;;5076560;28;20035;-70
2022/06/08 07:02:20;;;;;;;6.80;2.88;;;;;;;;;;5075193;28;20150;-71
2022/06/08 07:04:46;;;;;;;8.23;2.83;;;;;;;;;;5071762;28;20094;-73
2022/06/08 07:07:12;;;;;;;13.85;2.95;;;;;;;;;;5079806;28;20054;-73
2022/06/08 07:09:38;;;;;;;7.97;2.95;;;;;;;;;;5082218;28;20167;-72
2022/06/08 07:12:05;;;;;;;12.48;3.72;;;;;;;;;;5084685;28;20042;-71
2022/06/08 07:14:31;;;;;;;11.38;4.70;;;;;;;;;;5083296;28;20826;-71
2022/06/08 07:16:56;;;;;;;12.85;5.10;;;;;;;;;;5086894;28;20510;-71
2022/06/08 07:19:22;;;;;;;12.52;5.68;;;;;;;;;;5078848;28;20489;-71
2022/06/08 07:21:47;;;;;;;16.60;6.13;;;;;;;;;;5081649;28;20186;-74
2022/06/08 07:24:21;;;;;;;14.75;6.22;;;;;;;;;;5082075;28;20090;-73
2022/06/08 07:26:47;;;;;;;15.43;5.07;;;;;;;;;;5080950;28;20086;-72
2022/06/08 07:29:13;;;;;;;8.13;3.97;;;;;;;;;;5082965;28;20042;-70
2022/06/08 07:31:39;;;;;;;10.65;4.00;;;;;;;;;;5082275;28;20156;-70
2022/06/08 07:34:04;;;;;;;8.23;3.63;;;;;;;;;;5083126;28;20080;-72
2022/06/08 07:36:30;;;;;;;13.73;3.97;;;;;;;;;;5081484;28;20039;-74
2022/06/08 07:38:56;;;;;;;7.10;3.42;;;;;;;;;;5082127;28;20060;-72
2022/06/08 07:41:22;;;;;;;8.27;3.55;;;;;;;;;;5083305;28;20082;-72
2022/06/08 07:43:48;;;;;;;10.27;3.42;;;;;;;;;;5084885;28;20040;-72
2022/06/08 07:46:14;;;;;;;8.68;3.38;;;;;;;;;;5079252;28;20043;-71
2022/06/08 07:51:24;;;;;;;8.30;3.08;;;;;;;;;;5076643;28;20650;-72
2022/06/08 07:53:49;;;;;;;9.38;3.35;;;;;;;;;;5078432;28;20040;-72
2022/06/08 07:56:16;;;;;;;9.52;3.42;;;;;;;;;;5079515;28;20067;-71
2022/06/08 07:58:41;;;;;;;6.13;3.22;;;;;;;;;;5081550;28;20387;-71
2022/06/08 08:01:07;;;;;;;7.95;3.17;;;;;;;;;;5078637;28;20039;-71
2022/06/08 08:03:32;;;;;;;7.35;3.55;;;;;;;;;;5082289;28;20036;-71
2022/06/08 08:05:58;;;;;;;10.40;3.38;;;;;;;;;;5084710;28;20040;-73
2022/06/08 08:08:24;;;;;;;8.88;3.40;;;;;;;;;;5079613;28;20093;-73
2022/06/08 08:10:49;;;;;;;12.93;3.40;;;;;;;;;;5079169;28;20036;-72
2022/06/08 08:13:15;;;;;;;8.00;3.35;;;;;;;;;;5081533;28;20036;-74
2022/06/08 08:15:42;;;;;;;8.40;3.15;;;;;;;;;;5078437;28;20123;-74
2022/06/08 08:18:09;;;;;;;7.90;3.30;;;;;;;;;;5076959;28;20055;-73
2022/06/08 08:20:35;;;;;;;7.55;3.00;;;;;;;;;;5073429;28;20181;-75
2022/06/08 08:23:01;;;;;;;8.35;3.30;;;;;;;;;;5077360;28;20499;-72
2022/06/08 08:25:27;;;;;;;10.23;3.15;;;;;;;;;;5079047;28;20031;-71
2022/06/08 08:27:53;;;;;;;8.98;3.58;;;;;;;;;;5079113;28;20034;-73
2022/06/08 08:30:22;;;;;;;6.63;3.10;;;;;;;;;;5078815;28;20054;-72
2022/06/08 08:32:48;;;;;;;9.25;3.35;;;;;;;;;;5075090;28;20044;-75
2022/06/08 08:35:16;;;;;;;9.63;3.22;;;;;;;;;;5074820;28;20042;-74
2022/06/08 08:37:42;;;;;;;11.45;3.40;;;;;;;;;;5080002;28;20027;-72
2022/06/08 08:40:22;;;;;;;10.23;3.08;;;;;;;;;;5070223;28;20030;-72
2022/06/08 08:42:47;;;;;;;5.72;2.63;;;;;;;;;;5075096;28;20131;-72
2022/06/08 08:45:14;;;;;;;9.15;3.40;;;;;;;;;;5068792;28;20138;-71
2022/06/08 08:47:48;;;;;;;7.07;2.97;;;;;;;;;;5070921;28;20040;-72
2022/06/08 08:50:22;;;;;;;5.15;2.42;;;;;;;;;;5083583;28;20052;-72
2022/06/08 08:53:01;;;;;;;5.68;2.10;;;;;;;;;;5068638;28;20055;-72
2022/06/08 08:55:32;;;;;;;6.65;2.55;;;;;;;;;;5081913;28;20036;-71
2022/06/08 08:58:07;;;;;;;5.35;2.17;;;;;;;;;;5066923;28;20029;-72
2022/06/08 09:00:39;;;;;;;5.32;2.00;;;;;;;;;;5080762;28;21054;-72
2022/06/08 09:03:29;;;;;;;6.50;2.45;;;;;;;;;;5076568;28;20520;-72
2022/06/08 09:05:58;;;;;;;4.90;2.35;;;;;;;;;;5075533;28;20040;-71
2022/06/08 09:08:24;;;;;;;4.65;2.17;;;;;;;;;;5076239;28;20043;-71
2022/06/08 09:10:51;;;;;;;5.35;2.20;;;;;;;;;;5073885;28;20041;-71
2022/06/08 09:13:22;;;;;;;8.55;2.53;;;;;;;;;;5080325;28;20064;-71
2022/06/08 09:15:50;;;;;;;4.18;1.77;;;;;;;;;;5067795;28;20055;-70
2022/06/08 09:18:41;;;;;;;4.10;2.08;;;;;;;;;;5080686;28;20123;-72
2022/06/08 09:21:32;;;;;;;4.03;2.05;;;;;;;;;;5072163;28;20056;-70
2022/06/08 09:24:07;;;;;;;6.20;2.20;;;;;;;;;;5069303;28;20048;-73
2022/06/08 09:26:36;;;;;;;5.63;1.85;;;;;;;;;;5080462;28;20969;-70
2022/06/08 09:29:08;;;;;;;4.43;2.00;;;;;;;;;;5079798;28;20048;-74
2022/06/08 09:31:35;;;;;;;8.32;2.33;;;;;;;;;;5078496;28;20123;-73
2022/06/08 09:34:22;;;;;;;8.45;2.00;;;;;;;;;;5078157;28;20042;-71
2022/06/08 09:37:10;;;;;;;6.68;1.95;;;;;;;;;;5074929;28;20036;-71
2022/06/08 09:39:37;;;;;;;5.38;1.90;;;;;;;;;;5076847;28;20126;-72
2022/06/08 09:42:17;;;;;;;6.05;1.73;;;;;;;;;;5079786;28;20043;-72
2022/06/08 09:45:01;;;;;;;2.67;1.85;;;;;;;;;;5079232;28;20061;-71
2022/06/08 09:54:11;;;;;;;2.17;1.60;;;;;;;;;;5079513;28;20093;-72
2022/06/08 09:56:48;;;;;;;2.60;1.35;;;;;;;;;;5073010;28;20029;-72
2022/06/08 09:59:44;;;;;;;2.17;1.70;;;;;;;;;;5080327;28;20047;-72
2022/06/08 10:02:12;;;;;;;3.85;1.80;;;;;;;;;;5070728;28;20044;-73
2022/06/08 10:04:42;;;;;;;4.60;1.35;;;;;;;;;;5077222;28;20121;-71
2022/06/08 10:07:24;;;;;;;5.95;2.38;;;;;;;;;;5080422;28;20071;-72
2022/06/08 10:09:56;;;;;;;2.05;1.17;;;;;;;;;;5073135;28;20069;-70
2022/06/08 10:12:36;;;;;;;2.45;1.20;;;;;;;;;;5079779;28;20067;-72
2022/06/08 10:15:39;;;;;;;1.65;1.15;;;;;;;;;;5068569;28;20048;-71
2022/06/08 10:18:10;;;;;;;5.50;1.60;;;;;;;;;;5078059;28;20036;-74
2022/06/08 10:20:39;;;;;;;3.45;1.50;;;;;;;;;;5074965;28;20071;-72
2022/06/08 10:23:36;;;;;;;2.97;1.50;;;;;;;;;;5074309;28;20510;-72
2022/06/08 10:26:14;;;;;;;2.33;1.45;;;;;;;;;;5066284;28;20131;-71
2022/06/08 10:28:47;;;;;;;3.95;1.10;;;;;;;;;;5076025;28;20035;-75
2022/06/08 10:31:21;;;;;;;4.57;1.50;;;;;;;;;;5077963;28;20017;-70
2022/06/08 10:34:03;;;;;;;;;;;;;;;;;;5074875;28;20040;-73
2022/06/08 10:36:33;;;;;;;1.90;1.40;;;;;;;;;;5085385;28;20066;-75
2022/06/08 10:39:01;;;;;;;6.43;1.63;;;;;;;;;;5076925;28;20127;-72
2022/06/08 10:44:35;;;;;;;3.10;1.50;;;;;;;;;;5077394;28;20851;-73
2022/06/08 10:47:30;;;;;;;1.83;1.20;;;;;;;;;;5076592;28;20093;-72
2022/06/08 10:50:14;;;;;;;2.40;1.30;;;;;;;;;;5072001;28;20047;-73
2022/06/08 10:52:46;;;;;;;3.38;1.00;;;;;;;;;;5076159;28;20060;-73
2022/06/08 10:55:17;;;;;;;2.35;0.98;;;;;;;;;;5084174;28;20020;-73
2022/06/08 10:57:52;;;;;;;3.10;1.20;;;;;;;;;;5082011;28;20048;-72
2022/06/08 11:00:20;;;;;;;2.92;1.33;;;;;;;;;;5083698;28;20039;-73
2022/06/08 11:02:53;;;;;;;1.25;1.00;;;;;;;;;;5077115;28;20064;-72
2022/06/08 11:05:33;;;;;;;2.30;1.10;;;;;;;;;;5080635;28;20120;-72
2022/06/08 11:08:01;;;;;;;4.63;1.15;;;;;;;;;;5078539;28;20041;-72
2022/06/08 11:11:00;;;;;;;1.10;1.00;;;;;;;;;;5082342;28;20032;-72
2022/06/08 11:13:29;;;;;;;2.38;1.27;;;;;;;;;;5069290;28;20089;-72
2022/06/08 11:16:17;;;;;;;4.03;1.33;;;;;;;;;;5075780;28;20036;-71
2022/06/08 11:18:48;;;;;;;1.48;1.20;;;;;;;;;;5077386;28;21026;-71
2022/06/08 11:21:13;;;;;;;1.95;1.40;;;;;;;;;;5076086;28;20063;-72
2022/06/08 11:23:50;;;;;;;1.80;1.10;;;;;;;;;;5073545;28;20090;-71
2022/06/08 11:26:28;;;;;;;1.65;1.20;;;;;;;;;;5077130;28;20043;-71
2022/06/08 11:29:22;;;;;;;3.42;1.10;;;;;;;;;;5073046;28;20096;-70
2022/06/08 11:31:55;;;;;;;1.92;1.20;;;;;;;;;;5062748;28;20045;-72
2022/06/08 11:34:21;;;;;;;2.72;1.35;;;;;;;;;;5081544;28;20035;-72
2022/06/08 11:37:14;;;;;;;2.42;1.60;;;;;;;;;;5087610;28;20106;-72
2022/06/08 11:39:42;;;;;;;1.50;1.15;;;;;;;;;;5085279;28;20043;-71
2022/06/08 11:42:24;;;;;;;1.85;1.40;;;;;;;;;;5079222;28;20037;-73
2022/06/08 11:44:57;;;;;;;3.25;1.40;;;;;;;;;;5082994;28;20048;-73
2022/06/08 11:47:34;;;;;;;5.32;1.80;;;;;;;;;;5083492;28;20195;-73
2022/06/08 11:50:11;;;;;;;3.55;1.70;;;;;;;;;;5092484;28;20122;-73
2022/06/08 11:52:40;;;;;;;3.72;1.70;;;;;;;;;;5094896;28;20496;-72
2022/06/08 11:55:13;;;;;;;3.53;1.80;;;;;;;;;;5082920;28;20036;-72
2022/06/08 11:57:40;;;;;;;;;;;;;;;;;;5082744;28;20106;-73
2022/06/08 12:00:18;;;;;;;2.50;1.77;;;;;;;;;;5088027;28;19916;-74
2022/06/08 12:02:45;;;;;;;6.38;1.98;;;;;;;;;;5087866;28;20046;-76
2022/06/08 12:05:10;;;;;;;3.97;1.92;;;;;;;;;;5082762;28;20238;-72
2022/06/08 12:08:18;;;;;;;5.70;1.98;;;;;;;;;;5085732;28;20115;-75
2022/06/08 12:10:44;;;;;;;6.22;1.85;;;;;;;;;;5015958;28;20529;-72
2022/06/08 12:13:20;;;;;;;3.80;2.00;;;;;;;;;;5020321;28;20746;-71
2022/06/08 12:15:51;;;;;;;3.05;1.90;;;;;;;;;;5047477;28;20081;-71
2022/06/08 12:18:39;;;;;;;5.53;2.35;;;;;;;;;;5077976;28;20124;-71
2022/06/08 12:21:26;;;;;;;4.38;2.30;;;;;;;;;;5066760;28;20101;-72
2022/06/08 12:24:02;;;;;;;6.05;2.15;;;;;;;;;;5073375;28;20062;-74
2022/06/08 12:26:42;;;;;;;6.68;2.30;;;;;;;;;;5082065;28;20040;-73
2022/06/08 12:29:52;;;;;;;4.28;2.38;;;;;;;;;;5082639;28;20128;-72
2022/06/08 12:32:36;;;;;;;4.45;2.10;;;;;;;;;;4983474;28;20153;-73
2022/06/08 12:35:07;;;;;;;5.03;2.40;;;;;;;;;;5000462;28;20132;-74
2022/06/08 12:37:35;;;;;;;5.43;2.30;;;;;;;;;;5054729;28;20514;-74
2022/06/08 12:40:16;;;;;;;5.82;2.55;;;;;;;;;;5083844;28;20032;-72
2022/06/08 12:42:46;;;;;;;12.57;2.60;;;;;;;;;;5086920;28;20592;-75
2022/06/08 12:45:34;;;;;;;5.57;2.30;;;;;;;;;;5071886;28;20074;-72
2022/06/08 12:48:32;;;;;;;8.63;2.50;;;;;;;;;;5079657;28;20040;-75
2022/06/08 12:50:58;;;;;;;8.23;2.40;;;;;;;;;;5083999;28;20044;-76
2022/06/08 12:53:24;;;;;;;11.57;2.35;;;;;;;;;;5066677;28;20655;-78
2022/06/08 12:55:52;;;;;;;7.40;2.28;;;;;;;;;;5072002;28;20589;-78
2022/06/08 12:58:18;;;;;;;8.75;2.83;;;;;;;;;;5069861;28;20032;-78
2022/06/08 13:00:54;;;;;;;12.00;3.55;;;;;;;;;;5081825;28;20571;-78
2022/06/08 13:03:24;;;;;;;14.48;3.28;;;;;;;;;;5075970;28;20051;-75
2022/06/08 13:05:50;;;;;;;11.93;2.63;;;;;;;;;;5079659;28;20044;-75
2022/06/08 13:08:20;;;;;;;9.68;3.17;;;;;;;;;;5084969;28;20031;-75
2022/06/08 13:10:47;;;;;;;10.27;2.95;;;;;;;;;;5082790;28;20072;-74
2022/06/08 13:13:19;;;;;;;7.70;2.63;;;;;;;;;;5080002;28;20028;-74
2022/06/08 13:15:45;;;;;;;12.73;2.60;;;;;;;;;;5078155;28;20039;-75
2022/06/08 13:18:24;;;;;;;10.25;2.80;;;;;;;;;;5082124;28;20509;-75
2022/06/08 13:20:54;;;;;;;10.25;2.60;;;;;;;;;;5076460;28;20159;-74
2022/06/08 13:23:21;;;;;;;7.60;2.38;;;;;;;;;;5073036;28;20055;-75
2022/06/08 13:25:48;;;;;;;11.73;3.20;;;;;;;;;;5079873;28;20130;-75
2022/06/08 13:28:19;;;;;;;8.52;2.13;;;;;;;;;;5079899;28;20374;-75
2022/06/08 13:30:47;;;;;;;9.27;2.88;;;;;;;;;;5081666;28;20789;-75
2022/06/08 13:36:20;;;;;;;8.23;2.17;;;;;;;;;;5071472;28;20644;-75
2022/06/08 13:38:46;;;;;;;10.60;3.08;;;;;;;;;;5076114;28;20044;-71
2022/06/08 13:41:12;;;;;;;7.60;2.55;;;;;;;;;;5085342;28;20528;-71
2022/06/08 13:43:37;;;;;;;13.77;2.60;;;;;;;;;;5073355;28;20051;-74
2022/06/08 13:46:07;;;;;;;11.77;2.95;;;;;;;;;;5087428;28;20553;-73
2022/06/08 13:48:34;;;;;;;10.32;2.60;;;;;;;;;;5082314;28;20043;-74
2022/06/08 13:51:00;;;;;;;8.00;2.67;;;;;;;;;;5068978;28;20059;-73
2022/06/08 13:53:29;;;;;;;7.38;2.22;;;;;;;;;;5073167;28;20032;-74
2022/06/08 13:55:57;;;;;;;9.93;2.20;;;;;;;;;;5081954;28;20164;-76
2022/06/08 13:58:24;;;;;;;6.93;1.90;;;;;;;;;;5082324;28;20085;-75
2022/06/08 14:00:56;;;;;;;6.85;1.92;;;;;;;;;;5079681;28;20132;-74
2022/06/08 14:03:36;;;;;;;4.90;1.33;;;;;;;;;;5075815;28;20031;-72
2022/06/08 14:14:20;;;;;;;8.35;2.00;;;;;;;;;;5079083;28;20089;-71
2022/06/08 14:16:50;;;;;;;8.80;3.05;;;;;;;;;;5079242;28;20024;-70
2022/06/08 14:19:21;;;;;;;3.40;1.63;;;;;;;;;;5078080;28;20031;-73
2022/06/08 14:21:48;;;;;;;11.98;2.67;;;;;;;;;;5076433;28;20067;-72
2022/06/08 14:24:25;;;;;;;9.77;2.03;;;;;;;;;;5077864;28;20682;-71
2022/06/08 14:26:51;;;;;;;5.53;1.40;;;;;;;;;;5078990;28;20539;-74
2022/06/08 14:29:18;;;;;;;6.45;1.75;;;;;;;;;;5079941;28;20036;-72
2022/06/08 14:31:44;;;;;;;6.20;1.73;;;;;;;;;;5077417;28;20154;-72
2022/06/08 14:34:15;;;;;;;6.30;1.30;;;;;;;;;;5069239;28;20080;-72
2022/06/08 14:36:40;;;;;;;3.45;1.50;;;;;;;;;;5069933;28;20042;-72
2022/06/08 14:39:06;;;;;;;4.97;1.20;;;;;;;;;;5076342;28;20040;-72
2022/06/08 14:41:38;;;;;;;5.32;1.33;;;;;;;;;;5085791;28;20039;-73
2022/06/08 14:44:08;;;;;;;5.43;1.30;;;;;;;;;;5080800;28;20069;-69
2022/06/08 14:46:37;;;;;;;6.85;1.40;;;;;;;;;;5076770;28;20047;-74
2022/06/08 14:49:03;;;;;;;5.95;1.33;;;;;;;;;;5080860;28;20194;-75
2022/06/08 14:51:28;;;;;;;5.65;1.10;;;;;;;;;;5068391;28;20588;-76
2022/06/08 14:53:55;;;;;;;4.88;1.40;;;;;;;;;;5071591;28;20040;-76
2022/06/08 14:56:26;;;;;;;2.53;1.45;;;;;;;;;;5088008;28;20698;-75
2022/06/08 14:59:00;;;;;;;5.30;1.20;;;;;;;;;;5075850;28;20040;-76
2022/06/08 15:01:28;;;;;;;2.95;1.00;;;;;;;;;;5078395;28;20414;-76
2022/06/08 15:03:55;;;;;;;6.07;1.17;;;;;;;;;;5075568;28;20040;-72
2022/06/08 15:06:21;;;;;;;8.25;1.30;;;;;;;;;;5076635;28;20055;-72
2022/06/08 15:08:46;;;;;;;5.80;1.60;;;;;;;;;;5084175;28;20604;-72
2022/06/08 15:14:21;;;;;;;3.55;1.27;;;;;;;;;;5074128;28;20052;-72
2022/06/08 15:16:47;;;;;;;2.13;1.15;;;;;;;;;;5071669;28;20516;-77
2022/06/08 15:19:18;;;;;;;4.57;1.70;;;;;;;;;;5086844;28;20020;-76
2022/06/08 15:21:43;;;;;;;3.80;1.17;;;;;;;;;;5071812;28;20044;-79
2022/06/08 15:24:08;;;;;;;4.53;1.52;;;;;;;;;;5088243;28;20067;-78
2022/06/08 15:26:34;;;;;;;6.35;1.55;;;;;;;;;;5076556;28;20047;-74
2022/06/08 15:28:59;;;;;;;5.95;1.40;;;;;;;;;;5076755;28;20048;-74